createdAt,value
2022-11-16T00:00:44.483Z,80.92
2022-11-16T00:03:10.768Z,81.99
2022-11-16T00:05:37.061Z,82.20
2022-11-16T00:08:03.373Z,81.87
2022-11-16T00:10:29.679Z,82.10
2022-11-16T00:12:55.972Z,83.65
2022-11-16T00:15:22.290Z,82.56
2022-11-16T00:17:48.582Z,82.51
2022-11-16T00:20:14.884Z,82.88
2022-11-16T00:22:41.190Z,82.86
2022-11-16T00:25:07.490Z,85.82
2022-11-16T00:27:33.791Z,84.63
2022-11-16T00:30:00.168Z,84.27
2022-11-16T00:32:26.472Z,84.08
2022-11-16T00:34:52.765Z,83.68
2022-11-16T00:37:19.089Z,84.38
2022-11-16T00:39:45.398Z,82.86
2022-11-16T00:42:11.700Z,83.54
2022-11-16T00:44:38.021Z,82.91
2022-11-16T00:47:04.327Z,83.00
2022-11-16T00:49:30.629Z,82.88
2022-11-16T00:51:56.949Z,82.20
2022-11-16T00:54:23.257Z,82.97
2022-11-16T00:56:49.560Z,82.51
2022-11-16T00:59:15.893Z,83.14
2022-11-16T01:01:42.221Z,82.68
2022-11-16T01:04:08.600Z,82.55
2022-11-16T01:06:34.912Z,82.88
2022-11-16T01:09:01.224Z,83.20
2022-11-16T01:11:27.524Z,82.59
2022-11-16T01:13:53.885Z,82.10
2022-11-16T01:16:20.179Z,82.74
2022-11-16T01:18:46.490Z,82.84
2022-11-16T01:21:12.817Z,82.92
2022-11-16T01:23:39.127Z,82.97
2022-11-16T01:26:05.428Z,82.19
2022-11-16T01:28:32.210Z,82.45
2022-11-16T01:30:58.696Z,82.38
2022-11-16T01:33:24.998Z,82.69
2022-11-16T01:35:51.351Z,82.65
2022-11-16T01:38:17.654Z,82.93
2022-11-16T01:40:43.946Z,82.16
2022-11-16T01:43:10.268Z,82.60
2022-11-16T01:45:36.562Z,82.88
2022-11-16T01:48:02.896Z,82.22
2022-11-16T01:50:29.248Z,82.43
2022-11-16T01:52:55.536Z,82.24
2022-11-16T01:55:21.833Z,82.82
2022-11-16T01:57:48.144Z,82.37
2022-11-16T02:00:14.451Z,82.12
2022-11-16T02:02:40.752Z,82.56
2022-11-16T02:05:07.055Z,82.62
2022-11-16T02:07:33.409Z,82.44
2022-11-16T02:09:59.792Z,82.38
2022-11-16T02:12:26.102Z,83.04
2022-11-16T02:14:52.402Z,83.31
2022-11-16T02:17:18.698Z,82.84
2022-11-16T02:19:45.019Z,82.73
2022-11-16T02:22:11.321Z,82.54
2022-11-16T02:24:37.633Z,83.25
2022-11-16T02:27:03.935Z,83.24
2022-11-16T02:29:30.233Z,82.80
2022-11-16T02:31:56.538Z,83.78
2022-11-16T02:34:22.845Z,83.25
2022-11-16T02:36:49.146Z,83.32
2022-11-16T02:39:15.435Z,83.53
2022-11-16T02:41:41.772Z,83.42
2022-11-16T02:44:08.050Z,84.14
2022-11-16T02:46:34.346Z,83.23
2022-11-16T02:49:00.662Z,84.14
2022-11-16T02:51:26.963Z,83.88
2022-11-16T02:53:53.264Z,83.91
2022-11-16T02:56:19.579Z,83.83
2022-11-16T02:58:45.881Z,83.93
2022-11-16T03:01:12.293Z,84.63
2022-11-16T03:03:38.612Z,84.57
2022-11-16T03:06:04.919Z,84.57
2022-11-16T03:08:31.448Z,84.75
2022-11-16T03:10:58.118Z,84.64
2022-11-16T03:13:24.413Z,84.17
2022-11-16T03:15:50.784Z,84.93
2022-11-16T03:18:17.103Z,84.44
2022-11-16T03:20:43.383Z,85.02
2022-11-16T03:23:09.669Z,85.23
2022-11-16T03:25:35.975Z,85.18
2022-11-16T03:28:02.267Z,85.03
2022-11-16T03:30:28.572Z,84.81
2022-11-16T03:32:54.879Z,84.79
2022-11-16T03:35:21.162Z,85.00
2022-11-16T03:37:47.454Z,84.49
2022-11-16T03:40:13.763Z,84.50
2022-11-16T03:42:40.049Z,84.29
2022-11-16T03:45:06.340Z,84.31
2022-11-16T03:47:32.693Z,84.06
2022-11-16T03:49:58.987Z,84.13
2022-11-16T03:52:25.287Z,84.00
2022-11-16T03:54:51.605Z,84.20
2022-11-16T03:57:17.905Z,84.40
2022-11-16T03:59:44.200Z,84.45
2022-11-16T04:02:10.515Z,84.48
2022-11-16T04:04:36.806Z,83.77
2022-11-16T04:07:03.161Z,83.99
2022-11-16T04:09:29.505Z,84.36
2022-11-16T04:11:55.794Z,84.69
2022-11-16T04:14:22.084Z,83.93
2022-11-16T04:16:48.400Z,83.19
2022-11-16T04:19:14.687Z,82.99
2022-11-16T04:21:40.974Z,82.36
2022-11-16T04:24:07.297Z,82.25
2022-11-16T04:26:33.597Z,81.75
2022-11-16T04:28:59.890Z,82.04
2022-11-16T04:31:26.196Z,82.10
2022-11-16T04:33:52.502Z,81.72
2022-11-16T04:36:20.724Z,82.48
2022-11-16T04:38:47.230Z,82.37
2022-11-16T04:41:13.530Z,82.31
2022-11-16T04:43:39.825Z,82.37
2022-11-16T04:46:06.142Z,82.32
2022-11-16T04:48:32.770Z,82.10
2022-11-16T04:50:59.310Z,81.87
2022-11-16T04:53:25.686Z,81.82
2022-11-16T04:55:54.358Z,81.36
2022-11-16T04:58:22.945Z,80.69
2022-11-16T05:00:49.260Z,80.31
2022-11-16T05:03:15.546Z,79.33
2022-11-16T05:05:41.831Z,79.35
2022-11-16T05:08:09.279Z,79.11
2022-11-16T05:10:35.715Z,78.01
2022-11-16T05:13:02.017Z,77.42
2022-11-16T05:15:28.433Z,77.66
2022-11-16T05:17:54.727Z,76.68
2022-11-16T05:20:21.012Z,76.47
2022-11-16T05:22:47.315Z,75.92
2022-11-16T05:25:13.604Z,76.71
2022-11-16T05:27:39.890Z,76.12
2022-11-16T05:30:06.194Z,75.73
2022-11-16T05:32:32.490Z,75.52
2022-11-16T05:34:58.779Z,74.96
2022-11-16T05:37:25.086Z,75.34
2022-11-16T05:39:52.500Z,76.05
2022-11-16T05:42:18.784Z,75.62
2022-11-16T05:44:45.210Z,75.12
2022-11-16T05:47:11.492Z,74.19
2022-11-16T05:49:37.783Z,75.18
2022-11-16T05:52:04.074Z,75.30
2022-11-16T05:54:30.363Z,75.72
2022-11-16T05:56:56.658Z,75.20
2022-11-16T05:59:23.007Z,76.10
2022-11-16T06:01:49.303Z,76.58
2022-11-16T06:04:15.596Z,76.95
2022-11-16T06:06:41.901Z,77.52
2022-11-16T06:09:08.209Z,77.95
2022-11-16T06:11:36.232Z,77.34
2022-11-16T06:14:02.742Z,76.21
2022-11-16T06:16:29.043Z,74.41
2022-11-16T06:18:55.322Z,74.59
2022-11-16T06:21:21.667Z,73.96
2022-11-16T06:23:47.959Z,73.94
2022-11-16T06:26:14.252Z,73.14
2022-11-16T06:28:40.577Z,73.47
2022-11-16T06:31:06.872Z,73.12
2022-11-16T06:33:33.925Z,73.58
2022-11-16T06:36:00.462Z,72.43
2022-11-16T06:38:26.762Z,70.44
2022-11-16T06:40:53.127Z,70.80
2022-11-16T06:43:19.446Z,71.96
2022-11-16T06:45:45.726Z,71.24
2022-11-16T06:48:12.031Z,71.25
2022-11-16T06:50:38.343Z,71.76
2022-11-16T06:53:04.638Z,71.10
2022-11-16T06:55:30.978Z,71.13
2022-11-16T06:57:57.285Z,71.48
2022-11-16T07:00:23.580Z,71.96
2022-11-16T07:02:49.871Z,71.91
2022-11-16T07:05:16.221Z,72.48
2022-11-16T07:07:42.525Z,72.43
2022-11-16T07:10:08.807Z,72.42
2022-11-16T07:12:35.119Z,71.45
2022-11-16T07:15:01.425Z,71.23
2022-11-16T07:17:27.732Z,71.52
2022-11-16T07:19:54.061Z,71.38
2022-11-16T07:22:20.371Z,71.49
2022-11-16T07:24:46.672Z,70.88
2022-11-16T07:27:13.157Z,70.94
2022-11-16T07:29:39.493Z,72.10
2022-11-16T07:32:05.788Z,72.78
2022-11-16T07:34:32.103Z,73.28
2022-11-16T07:36:58.403Z,73.57
2022-11-16T07:39:24.706Z,70.99
2022-11-16T07:41:51.148Z,72.78
2022-11-16T07:44:17.462Z,72.76
2022-11-16T07:46:47.067Z,72.61
2022-11-16T07:49:14.375Z,73.10
2022-11-16T07:51:40.694Z,73.49
2022-11-16T07:54:06.985Z,73.30
2022-11-16T07:56:33.306Z,73.25
2022-11-16T07:58:59.606Z,73.58
2022-11-16T08:01:25.938Z,73.62
2022-11-16T08:03:52.333Z,73.43
2022-11-16T08:06:18.631Z,73.39
2022-11-16T08:08:44.930Z,73.70
2022-11-16T08:11:11.299Z,73.85
2022-11-16T08:13:37.606Z,74.01
2022-11-16T08:16:03.908Z,75.36
2022-11-16T08:18:30.356Z,74.50
2022-11-16T08:20:56.696Z,75.17
2022-11-16T08:23:22.994Z,72.42
2022-11-16T08:25:49.315Z,73.44
2022-11-16T08:28:15.617Z,73.41
2022-11-16T08:30:41.921Z,73.92
2022-11-16T08:33:08.241Z,73.24
2022-11-16T08:35:34.526Z,72.79
2022-11-16T08:38:00.829Z,72.80
2022-11-16T08:40:27.219Z,73.12
2022-11-16T08:42:53.523Z,73.07
2022-11-16T08:45:19.811Z,71.27
2022-11-16T08:47:46.140Z,71.53
2022-11-16T08:50:12.446Z,70.50
2022-11-16T08:52:38.755Z,70.98
2022-11-16T08:55:05.160Z,69.94
2022-11-16T08:57:31.459Z,70.11
2022-11-16T08:59:57.774Z,69.15
2022-11-16T09:02:24.125Z,69.33
2022-11-16T09:04:50.426Z,69.50
2022-11-16T09:07:16.772Z,69.30
2022-11-16T09:09:43.117Z,68.65
2022-11-16T09:12:09.409Z,69.87
2022-11-16T09:14:35.710Z,68.97
2022-11-16T09:17:02.064Z,69.61
2022-11-16T09:19:28.365Z,69.26
2022-11-16T09:21:54.650Z,68.24
2022-11-16T09:24:20.951Z,68.91
2022-11-16T09:26:47.359Z,67.50
2022-11-16T09:29:13.661Z,68.28
2022-11-16T09:31:39.966Z,68.51
2022-11-16T09:34:06.262Z,67.87
2022-11-16T09:36:32.561Z,68.38
2022-11-16T09:41:45.174Z,68.79
2022-11-16T09:44:11.516Z,68.21
2022-11-16T09:46:37.811Z,69.24
2022-11-16T09:49:04.115Z,68.30
2022-11-16T09:51:30.432Z,68.62
2022-11-16T09:53:56.738Z,67.74
2022-11-16T09:56:23.044Z,67.88
2022-11-16T09:58:49.360Z,67.15
2022-11-16T10:01:15.708Z,67.63
2022-11-16T10:03:42.013Z,68.12
2022-11-16T10:06:08.452Z,66.82
2022-11-16T10:08:34.953Z,66.65
2022-11-16T10:11:01.468Z,65.76
2022-11-16T10:13:27.784Z,66.35
2022-11-16T10:15:54.066Z,65.71
2022-11-16T10:18:20.359Z,66.39
2022-11-16T10:20:46.722Z,65.77
2022-11-16T10:23:13.017Z,66.19
2022-11-16T10:25:39.310Z,66.68
2022-11-16T10:28:05.636Z,65.24
2022-11-16T10:30:31.927Z,65.41
2022-11-16T10:32:58.212Z,65.67
2022-11-16T10:35:24.541Z,64.05
2022-11-16T10:37:50.871Z,64.05
2022-11-16T10:40:17.200Z,62.77
2022-11-16T10:42:43.504Z,63.08
2022-11-16T10:45:09.793Z,65.78
2022-11-16T10:47:36.082Z,65.42
2022-11-16T10:50:02.415Z,66.54
2022-11-16T10:52:28.709Z,65.55
2022-11-16T10:54:55.053Z,65.50
2022-11-16T10:57:21.369Z,65.74
2022-11-16T10:59:47.669Z,65.69
2022-11-16T11:02:13.969Z,66.19
2022-11-16T11:04:40.277Z,65.49
2022-11-16T11:07:06.627Z,65.85
2022-11-16T11:09:32.936Z,64.93
2022-11-16T11:11:59.239Z,65.25
2022-11-16T11:14:25.844Z,65.59
2022-11-16T11:16:52.213Z,66.77
2022-11-16T11:19:18.515Z,64.27
2022-11-16T11:21:44.982Z,65.00
2022-11-16T11:24:42.851Z,64.88
2022-11-16T11:26:57.892Z,62.22
2022-11-16T11:29:24.543Z,62.29
2022-11-16T11:31:50.908Z,61.85
2022-11-16T11:34:17.221Z,63.19
2022-11-16T11:36:43.518Z,64.60
2022-11-16T11:39:09.847Z,64.02
2022-11-16T11:41:36.140Z,63.18
2022-11-16T11:44:02.427Z,63.99
2022-11-16T11:46:47.533Z,63.65
2022-11-16T11:49:15.011Z,61.89
2022-11-16T11:51:41.308Z,62.17
2022-11-16T11:54:07.594Z,62.48
2022-11-16T11:56:34.104Z,62.57
2022-11-16T11:59:00.597Z,62.10
2022-11-16T12:01:27.109Z,62.21
2022-11-16T12:03:53.471Z,62.62
2022-11-16T12:06:19.767Z,61.89
2022-11-16T12:08:46.057Z,62.59
2022-11-16T12:11:12.380Z,62.03
2022-11-16T12:13:38.673Z,61.44
2022-11-16T12:16:04.964Z,62.00
2022-11-16T12:18:31.272Z,62.27
2022-11-16T12:20:57.572Z,61.94
2022-11-16T12:23:23.865Z,63.63
2022-11-16T12:25:50.170Z,63.02
2022-11-16T12:28:16.451Z,61.64
2022-11-16T12:30:42.747Z,61.75
2022-11-16T12:33:09.105Z,62.04
2022-11-16T12:35:35.481Z,61.20
2022-11-16T12:38:01.917Z,61.80
2022-11-16T12:40:28.264Z,62.48
2022-11-16T12:42:54.556Z,62.20
2022-11-16T12:45:20.873Z,62.25
2022-11-16T12:47:47.189Z,62.94
2022-11-16T12:50:13.486Z,62.00
2022-11-16T12:52:39.781Z,61.19
2022-11-16T12:57:52.369Z,62.88
2022-11-16T13:00:18.695Z,62.34
2022-11-16T13:02:44.984Z,62.87
2022-11-16T13:05:11.277Z,62.18
2022-11-16T13:07:37.691Z,61.01
2022-11-16T13:10:04.030Z,62.67
2022-11-16T13:12:30.324Z,62.83
2022-11-16T13:14:56.643Z,62.62
2022-11-16T13:17:22.945Z,61.92
2022-11-16T13:19:49.249Z,61.54
2022-11-16T13:22:15.570Z,60.75
2022-11-16T13:24:42.002Z,60.83
2022-11-16T13:27:08.309Z,60.61
2022-11-16T13:29:34.619Z,60.68
2022-11-16T13:32:00.901Z,60.44
2022-11-16T13:34:27.201Z,61.20
2022-11-16T13:36:53.552Z,61.37
2022-11-16T13:39:22.582Z,61.96
2022-11-16T13:41:49.376Z,61.19
2022-11-16T13:47:06.566Z,61.37
2022-11-16T13:49:32.977Z,61.98
2022-11-16T13:52:16.843Z,62.04
2022-11-16T13:54:46.808Z,61.27
2022-11-16T13:57:14.245Z,61.57
2022-11-16T13:59:40.924Z,61.87
2022-11-16T14:02:07.231Z,60.43
2022-11-16T14:04:33.541Z,59.88
2022-11-16T14:06:59.917Z,61.05
2022-11-16T14:09:31.904Z,60.34
2022-11-16T14:11:59.359Z,59.87
2022-11-16T14:14:25.683Z,60.12
2022-11-16T14:16:51.991Z,60.42
2022-11-16T14:19:18.305Z,60.53
2022-11-16T14:21:44.634Z,59.64
2022-11-16T14:24:10.944Z,58.38
2022-11-16T14:26:37.235Z,59.59
2022-11-16T14:29:03.739Z,59.24
2022-11-16T14:31:30.051Z,59.42
2022-11-16T14:33:56.351Z,58.91
2022-11-16T14:36:22.660Z,58.30
2022-11-16T14:38:48.966Z,59.75
2022-11-16T14:41:15.263Z,59.17
2022-11-16T14:43:41.620Z,59.40
2022-11-16T14:46:07.932Z,59.33
2022-11-16T14:48:34.228Z,58.90
2022-11-16T14:51:00.558Z,59.40
2022-11-16T14:53:26.892Z,59.66
2022-11-16T14:55:53.199Z,60.55
2022-11-16T14:58:19.513Z,60.48
2022-11-16T15:00:45.816Z,60.25
2022-11-16T15:03:12.158Z,60.37
2022-11-16T15:05:38.596Z,60.09
2022-11-16T15:08:04.917Z,60.42
2022-11-16T15:10:31.217Z,61.29
2022-11-16T15:12:57.526Z,60.24
2022-11-16T15:15:23.809Z,60.79
2022-11-16T15:17:50.118Z,61.02
2022-11-16T15:20:16.427Z,60.45
2022-11-16T15:22:43.133Z,61.04
2022-11-16T15:25:09.550Z,61.35
2022-11-16T15:27:35.865Z,62.26
2022-11-16T15:30:02.177Z,61.34
2022-11-16T15:32:28.467Z,62.36
2022-11-16T15:34:54.784Z,62.35
2022-11-16T15:37:21.079Z,61.96
2022-11-16T15:39:47.380Z,62.45
2022-11-16T15:42:13.723Z,61.66
2022-11-16T15:44:40.020Z,62.72
2022-11-16T15:47:06.321Z,63.28
2022-11-16T15:49:32.681Z,62.54
2022-11-16T15:51:58.969Z,62.25
2022-11-16T15:54:25.275Z,62.87
2022-11-16T15:56:51.581Z,62.99
2022-11-16T15:59:17.882Z,62.72
2022-11-16T16:01:44.256Z,62.66
2022-11-16T16:04:10.623Z,62.86
2022-11-16T16:06:36.914Z,63.23
2022-11-16T16:09:03.196Z,63.24
2022-11-16T16:11:29.537Z,63.78
2022-11-16T16:13:55.838Z,63.92
2022-11-16T16:16:22.141Z,63.74
2022-11-16T16:18:48.453Z,64.23
2022-11-16T16:21:14.756Z,64.55
2022-11-16T16:23:41.063Z,64.12
2022-11-16T16:26:07.472Z,63.83
2022-11-16T16:28:33.773Z,63.78
2022-11-16T16:31:00.096Z,64.29
2022-11-16T16:33:26.413Z,63.81
2022-11-16T16:35:52.776Z,64.07
2022-11-16T16:38:19.056Z,63.53
2022-11-16T16:40:45.368Z,64.03
2022-11-16T16:43:11.663Z,64.02
2022-11-16T16:45:37.981Z,64.01
2022-11-16T16:48:04.288Z,64.07
2022-11-16T16:50:30.585Z,63.11
2022-11-16T16:52:56.889Z,63.46
2022-11-16T16:55:23.243Z,64.37
2022-11-16T16:57:49.537Z,64.30
2022-11-16T17:00:15.835Z,63.27
2022-11-16T17:02:42.159Z,63.30
2022-11-16T17:05:08.454Z,62.68
2022-11-16T17:07:34.812Z,63.31
2022-11-16T17:10:01.207Z,63.57
2022-11-16T17:12:27.511Z,63.83
2022-11-16T17:14:53.791Z,63.27
2022-11-16T17:17:20.094Z,63.07
2022-11-16T17:19:46.388Z,63.68
2022-11-16T17:22:12.686Z,64.24
2022-11-16T17:24:39.022Z,64.26
2022-11-16T17:27:05.333Z,64.86
2022-11-16T17:29:31.624Z,64.26
2022-11-16T17:31:57.937Z,64.01
2022-11-16T17:34:24.238Z,64.55
2022-11-16T17:36:50.540Z,64.32
2022-11-16T17:39:16.873Z,64.38
2022-11-16T17:41:43.184Z,64.62
2022-11-16T17:44:09.478Z,63.66
2022-11-16T17:46:35.784Z,63.72
2022-11-16T17:49:02.081Z,63.69
2022-11-16T17:51:28.370Z,64.32
2022-11-16T17:53:54.689Z,63.54
2022-11-16T17:56:20.981Z,64.04
2022-11-16T17:58:47.285Z,64.31
2022-11-16T18:01:13.677Z,64.53
2022-11-16T18:03:40.075Z,64.14
2022-11-16T18:06:06.371Z,64.41
2022-11-16T18:08:32.680Z,64.17
2022-11-16T18:10:58.963Z,64.42
2022-11-16T18:13:25.249Z,64.29
2022-11-16T18:15:51.691Z,64.79
2022-11-16T18:18:17.977Z,64.91
2022-11-16T18:20:44.271Z,65.68
2022-11-16T18:23:10.576Z,65.54
2022-11-16T18:25:36.874Z,65.48
2022-11-16T18:28:03.177Z,65.84
2022-11-16T18:30:29.500Z,65.86
2022-11-16T18:32:55.808Z,65.60
2022-11-16T18:35:22.110Z,65.69
2022-11-16T18:37:48.449Z,64.97
2022-11-16T18:40:14.748Z,64.75
2022-11-16T18:42:41.052Z,65.67
2022-11-16T18:45:07.372Z,64.72
2022-11-16T18:47:33.668Z,64.53
2022-11-16T18:49:59.974Z,66.24
2022-11-16T18:52:26.320Z,65.86
2022-11-16T18:54:52.615Z,66.35
2022-11-16T18:57:18.914Z,65.87
2022-11-16T18:59:45.237Z,64.91
2022-11-16T19:02:11.540Z,65.35
2022-11-16T19:04:37.844Z,65.48
2022-11-16T19:07:04.251Z,64.95
2022-11-16T19:09:30.567Z,65.49
2022-11-16T19:11:56.855Z,66.17
2022-11-16T19:14:23.169Z,66.26
2022-11-16T19:16:55.641Z,66.13
2022-11-16T19:19:23.164Z,65.10
2022-11-16T19:21:49.459Z,64.42
2022-11-16T19:24:15.753Z,65.14
2022-11-16T19:26:42.060Z,64.03
2022-11-16T19:29:08.346Z,62.88
2022-11-16T19:31:34.632Z,63.16
2022-11-16T19:34:00.930Z,63.48
2022-11-16T19:36:27.232Z,63.54
2022-11-16T19:38:53.526Z,63.37
2022-11-16T19:41:19.856Z,62.91
2022-11-16T19:43:46.153Z,62.18
2022-11-16T19:46:12.437Z,62.18
2022-11-16T19:48:38.778Z,61.63
2022-11-16T19:51:05.060Z,60.71
2022-11-16T19:53:31.494Z,61.56
2022-11-16T19:55:57.910Z,62.07
2022-11-16T19:58:24.216Z,62.93
2022-11-16T20:00:50.560Z,63.14
2022-11-16T20:03:16.899Z,64.34
2022-11-16T20:05:43.244Z,63.82
2022-11-16T20:08:09.527Z,63.34
2022-11-16T20:10:35.893Z,63.61
2022-11-16T20:13:02.189Z,63.22
2022-11-16T20:15:28.492Z,62.97
2022-11-16T20:17:54.795Z,62.43
2022-11-16T20:20:21.095Z,62.45
2022-11-16T20:22:47.393Z,62.71
2022-11-16T20:25:13.704Z,62.09
2022-11-16T20:27:40.037Z,63.28
2022-11-16T20:30:09.564Z,63.35
2022-11-16T20:32:36.257Z,65.35
2022-11-16T20:35:02.548Z,63.73
2022-11-16T20:37:28.845Z,62.82
2022-11-16T20:39:55.165Z,62.89
2022-11-16T20:42:21.451Z,61.97
2022-11-16T20:44:47.755Z,62.10
2022-11-16T20:47:14.063Z,62.21
2022-11-16T20:49:40.352Z,62.63
2022-11-16T20:52:06.655Z,62.81
2022-11-16T20:54:32.972Z,62.90
2022-11-16T20:56:59.278Z,61.36
2022-11-16T20:59:25.574Z,62.11
2022-11-16T21:01:52.002Z,62.43
2022-11-16T21:04:18.326Z,61.77
2022-11-16T21:06:44.627Z,61.64
2022-11-16T21:09:10.957Z,62.76
2022-11-16T21:11:37.257Z,62.24
2022-11-16T21:14:03.564Z,63.09
2022-11-16T21:16:29.930Z,63.17
2022-11-16T21:18:56.223Z,63.51
2022-11-16T21:21:22.553Z,63.11
2022-11-16T21:23:48.864Z,64.79
2022-11-16T21:26:15.171Z,66.83
2022-11-16T21:28:41.477Z,66.06
2022-11-16T21:31:07.796Z,64.63
2022-11-16T21:33:34.374Z,65.15
2022-11-16T21:36:00.837Z,64.89
2022-11-16T21:38:28.126Z,64.12
2022-11-16T21:40:54.423Z,65.00
2022-11-16T21:43:20.715Z,65.21
2022-11-16T21:45:47.034Z,65.48
2022-11-16T21:48:13.340Z,65.50
2022-11-16T21:50:39.632Z,65.16
2022-11-16T21:53:05.955Z,65.23
2022-11-16T21:55:32.373Z,65.75
2022-11-16T21:57:58.675Z,64.70
2022-11-16T22:00:25.012Z,63.77
2022-11-16T22:02:51.316Z,63.96
2022-11-16T22:05:17.704Z,64.31
2022-11-16T22:07:44.048Z,65.10
2022-11-16T22:10:10.351Z,65.25
2022-11-16T22:12:36.750Z,65.50
2022-11-16T22:15:03.085Z,66.21
2022-11-16T22:17:29.393Z,67.15
2022-11-16T22:19:55.700Z,67.37
2022-11-16T22:22:22.086Z,68.00
2022-11-16T22:24:48.557Z,67.29
2022-11-16T22:27:14.949Z,67.04
2022-11-16T22:29:41.260Z,67.44
2022-11-16T22:32:07.551Z,67.58
2022-11-16T22:34:33.867Z,68.12
2022-11-16T22:37:00.186Z,67.37
2022-11-16T22:39:26.494Z,67.03
2022-11-16T22:41:52.801Z,66.96
2022-11-16T22:44:19.128Z,68.05
2022-11-16T22:46:45.429Z,67.96
2022-11-16T22:49:11.744Z,66.93
2022-11-16T22:51:38.052Z,66.50
2022-11-16T22:54:04.351Z,66.72
2022-11-16T22:56:30.655Z,66.27
2022-11-16T22:58:56.999Z,65.56
2022-11-16T23:01:23.297Z,65.66
2022-11-16T23:03:49.647Z,65.60
2022-11-16T23:06:15.991Z,65.90
2022-11-16T23:08:42.282Z,65.57
2022-11-16T23:11:08.617Z,65.12
2022-11-16T23:13:35.121Z,65.99
2022-11-16T23:16:01.666Z,65.86
2022-11-16T23:18:27.964Z,65.84
2022-11-16T23:20:54.283Z,66.51
2022-11-16T23:23:20.574Z,67.15
2022-11-16T23:25:46.857Z,67.59
2022-11-16T23:28:13.201Z,68.05
2022-11-16T23:30:39.502Z,68.17
2022-11-16T23:33:05.798Z,67.78
2022-11-16T23:35:32.121Z,66.83
2022-11-16T23:37:58.426Z,65.49
2022-11-16T23:40:24.730Z,63.55
2022-11-16T23:42:51.052Z,62.86
2022-11-16T23:45:17.459Z,63.46
2022-11-16T23:47:43.754Z,63.46
2022-11-16T23:50:10.060Z,64.62
2022-11-16T23:52:36.379Z,63.86
2022-11-16T23:55:02.686Z,63.05
2022-11-16T23:57:28.986Z,63.29
2022-11-16T23:59:55.290Z,63.31
